createdAt,value
2023-03-11T00:00:00.668Z,82.5
2023-03-11T00:05:00.730Z,82.1
2023-03-11T00:10:00.678Z,81.4
2023-03-11T00:15:00.684Z,82.0
2023-03-11T00:20:00.665Z,82.2
2023-03-11T00:25:00.693Z,81.5
2023-03-11T00:30:00.694Z,81.6
2023-03-11T00:35:00.680Z,81.7
2023-03-11T00:40:00.695Z,80.3
2023-03-11T00:45:00.702Z,81.7
2023-03-11T00:50:00.688Z,80.4
2023-03-11T00:55:00.687Z,80.4
2023-03-11T01:00:00.711Z,80.6
2023-03-11T01:05:00.704Z,81.0
2023-03-11T01:10:00.635Z,80.2
2023-03-11T01:15:00.682Z,80.8
2023-03-11T01:20:00.833Z,79.9
2023-03-11T01:25:00.663Z,80.2
2023-03-11T01:30:00.711Z,80.9
2023-03-11T01:35:00.698Z,80.7
2023-03-11T01:40:00.632Z,80.2
2023-03-11T01:45:00.694Z,79.7
2023-03-11T01:50:00.658Z,80.1
2023-03-11T01:55:00.690Z,80.5
2023-03-11T02:00:00.661Z,79.7
2023-03-11T02:05:00.668Z,80.1
2023-03-11T02:10:00.708Z,79.9
2023-03-11T02:15:00.686Z,79.6
2023-03-11T02:20:00.645Z,79.9
2023-03-11T02:25:00.713Z,79.7
2023-03-11T02:30:00.657Z,79.2
2023-03-11T02:35:00.682Z,79.1
2023-03-11T02:40:00.683Z,80.0
2023-03-11T02:45:00.691Z,79.9
2023-03-11T02:50:00.665Z,79.4
2023-03-11T02:55:00.681Z,79.9
2023-03-11T03:00:00.721Z,79.9
2023-03-11T03:05:00.646Z,78.9
2023-03-11T03:10:00.697Z,78.6
2023-03-11T03:15:00.664Z,79.1
2023-03-11T03:20:00.696Z,79.0
2023-03-11T03:25:00.648Z,78.8
2023-03-11T03:30:00.681Z,79.0
2023-03-11T03:35:00.688Z,79.2
2023-03-11T03:40:00.658Z,78.3
2023-03-11T03:45:00.657Z,78.7
2023-03-11T03:50:00.695Z,79.1
2023-03-11T03:55:00.675Z,79.1
2023-03-11T04:00:00.706Z,79.4
2023-03-11T04:05:00.685Z,78.4
2023-03-11T04:10:00.723Z,78.8
2023-03-11T04:15:00.679Z,78.1
2023-03-11T04:20:00.679Z,78.6
2023-03-11T04:25:00.694Z,78.7
2023-03-11T04:30:00.679Z,79.3
2023-03-11T04:35:00.653Z,78.5
2023-03-11T04:40:00.665Z,79.1
2023-03-11T04:45:00.693Z,78.3
2023-03-11T04:50:00.668Z,78.1
2023-03-11T04:55:00.675Z,77.7
2023-03-11T05:00:00.801Z,77.8
2023-03-11T05:05:00.744Z,77.5
2023-03-11T05:10:00.701Z,78.3
2023-03-11T05:15:00.656Z,78.0
2023-03-11T05:20:00.706Z,78.0
2023-03-11T05:25:00.662Z,78.5
2023-03-11T05:30:00.690Z,77.6
2023-03-11T05:35:00.711Z,78.3
2023-03-11T05:40:00.663Z,77.6
2023-03-11T05:45:00.695Z,77.9
2023-03-11T05:50:00.658Z,77.2
2023-03-11T05:55:00.741Z,77.6
2023-03-11T06:00:00.703Z,76.7
2023-03-11T06:05:00.923Z,77.1
2023-03-11T06:10:00.829Z,77.4
2023-03-11T06:15:00.677Z,77.3
2023-03-11T06:20:00.669Z,77.4
2023-03-11T06:25:00.651Z,77.5
2023-03-11T06:30:00.726Z,77.4
2023-03-11T06:35:00.626Z,77.6
2023-03-11T06:40:00.681Z,77.8
2023-03-11T06:45:00.700Z,76.7
2023-03-11T06:50:00.683Z,77.4
2023-03-11T06:55:00.691Z,77.7
2023-03-11T07:00:00.669Z,76.5
2023-03-11T07:05:00.705Z,76.5
2023-03-11T07:10:00.653Z,76.8
2023-03-11T07:15:00.682Z,76.3
2023-03-11T07:20:00.679Z,76.1
2023-03-11T07:25:00.680Z,76.2
2023-03-11T07:30:00.715Z,76.7
2023-03-11T07:35:00.708Z,76.8
2023-03-11T07:40:00.683Z,76.2
2023-03-11T07:45:00.698Z,75.8
2023-03-11T07:50:00.682Z,74.8
2023-03-11T07:55:00.687Z,74.5
2023-03-11T08:00:01.191Z,74.7
2023-03-11T08:05:00.691Z,72.7
2023-03-11T08:10:00.682Z,72.3
2023-03-11T08:15:00.711Z,72.2
2023-03-11T08:20:00.699Z,72.1
2023-03-11T08:25:00.689Z,70.9
2023-03-11T08:30:00.657Z,70.0
2023-03-11T08:35:00.677Z,71.5
2023-03-11T08:40:00.674Z,70.3
2023-03-11T08:45:00.664Z,69.6
2023-03-11T08:50:00.695Z,68.3
2023-03-11T08:55:00.675Z,65.7
2023-03-11T09:05:00.642Z,66.6
2023-03-11T09:10:00.719Z,65.5
2023-03-11T09:15:00.688Z,60.0
2023-03-11T09:20:00.661Z,61.6
2023-03-11T09:25:00.690Z,59.2
2023-03-11T09:30:00.693Z,61.7
2023-03-11T09:35:00.691Z,56.4
2023-03-11T09:40:00.716Z,60.1
2023-03-11T09:45:00.678Z,59.1
2023-03-11T09:50:00.714Z,57.6
2023-03-11T09:55:00.640Z,54.3
2023-03-11T10:00:00.655Z,56.3
2023-03-11T10:05:00.694Z,58.5
2023-03-11T10:10:00.692Z,55.9
2023-03-11T10:15:00.692Z,53.7
2023-03-11T10:20:00.667Z,56.1
2023-03-11T10:25:00.701Z,56.4
2023-03-11T10:30:00.656Z,55.2
2023-03-11T10:35:00.692Z,55.0
2023-03-11T10:40:00.677Z,55.5
2023-03-11T10:45:00.670Z,56.4
2023-03-11T10:50:00.687Z,56.8
2023-03-11T10:55:00.685Z,55.6
2023-03-11T11:00:00.630Z,58.7
2023-03-11T11:05:00.679Z,59.2
2023-03-11T11:10:00.699Z,64.0
2023-03-11T11:15:00.658Z,61.1
2023-03-11T11:20:00.688Z,61.3
2023-03-11T11:25:00.737Z,61.0
2023-03-11T11:35:00.661Z,58.6
2023-03-11T11:40:00.665Z,58.4
2023-03-11T11:45:00.680Z,56.2
2023-03-11T11:50:00.675Z,57.5
2023-03-11T11:55:00.675Z,56.8
2023-03-11T12:00:00.661Z,54.7
2023-03-11T12:05:00.687Z,50.8
2023-03-11T12:10:09.761Z,51.1
2023-03-11T12:15:00.691Z,51.0
2023-03-11T12:20:00.716Z,50.4
2023-03-11T12:25:00.642Z,52.5
2023-03-11T12:30:00.687Z,52.3
2023-03-11T12:35:00.692Z,53.2
2023-03-11T12:40:00.671Z,55.0
2023-03-11T12:45:00.678Z,57.5
2023-03-11T12:50:00.661Z,56.2
2023-03-11T12:55:00.681Z,56.1
2023-03-11T13:00:00.675Z,54.2
2023-03-11T13:05:00.644Z,54.9
2023-03-11T13:10:00.727Z,55.1
2023-03-11T13:15:02.463Z,54.5
2023-03-11T13:20:00.695Z,55.9
2023-03-11T13:25:00.720Z,55.7
2023-03-11T13:30:00.705Z,55.9
2023-03-11T13:35:00.687Z,55.4
2023-03-11T13:40:00.668Z,55.3
2023-03-11T13:45:00.703Z,55.8
2023-03-11T13:50:00.675Z,55.6
2023-03-11T13:55:00.645Z,55.7
2023-03-11T14:00:01.037Z,56.8
2023-03-11T14:05:00.666Z,56.0
2023-03-11T14:10:00.711Z,55.9
2023-03-11T14:15:00.703Z,54.9
2023-03-11T14:20:00.649Z,53.6
2023-03-11T14:25:00.683Z,53.0
2023-03-11T14:30:00.661Z,53.4
2023-03-11T14:35:00.684Z,53.5
2023-03-11T14:40:00.717Z,54.6
2023-03-11T14:45:00.634Z,54.5
2023-03-11T14:50:00.656Z,54.2
2023-03-11T14:55:00.692Z,53.6
2023-03-11T15:00:00.710Z,55.2
2023-03-11T15:05:00.825Z,55.4
2023-03-11T15:10:00.707Z,56.5
2023-03-11T15:15:00.698Z,56.8
2023-03-11T15:20:00.690Z,57.6
2023-03-11T15:25:00.723Z,58.1
2023-03-11T15:30:00.712Z,57.8
2023-03-11T15:35:00.688Z,56.8
2023-03-11T15:40:00.715Z,57.1
2023-03-11T15:45:00.744Z,57.6
2023-03-11T15:50:00.686Z,58.9
2023-03-11T15:55:00.657Z,59.5
2023-03-11T16:00:00.699Z,62.4
2023-03-11T16:05:00.796Z,66.1
2023-03-11T16:10:02.160Z,68.4
2023-03-11T16:15:00.718Z,69.1
2023-03-11T16:20:00.703Z,71.4
2023-03-11T16:25:00.658Z,71.6
2023-03-11T16:30:00.701Z,72.4
2023-03-11T16:35:00.706Z,72.4
2023-03-11T16:40:00.656Z,72.7
2023-03-11T16:45:03.463Z,72.0
2023-03-11T16:50:00.781Z,72.6
2023-03-11T16:55:00.717Z,74.3
2023-03-11T17:00:00.723Z,72.8
2023-03-11T17:05:00.760Z,72.5
2023-03-11T17:10:00.707Z,72.1
2023-03-11T17:15:00.708Z,72.7
2023-03-11T17:20:00.708Z,74.1
2023-03-11T17:25:00.666Z,73.4
2023-03-11T17:30:00.697Z,73.2
2023-03-11T17:35:00.680Z,73.9
2023-03-11T17:40:00.688Z,75.0
2023-03-11T17:45:00.716Z,75.3
2023-03-11T17:50:00.774Z,75.1
2023-03-11T17:55:00.672Z,74.3
2023-03-11T18:00:00.717Z,76.8
2023-03-11T18:05:00.709Z,74.6
2023-03-11T18:10:00.696Z,74.7
2023-03-11T18:15:00.686Z,74.6
2023-03-11T18:20:00.716Z,74.9
2023-03-11T18:25:00.672Z,76.3
2023-03-11T18:30:00.696Z,75.2
2023-03-11T18:35:00.672Z,74.7
2023-03-11T18:40:00.711Z,75.4
2023-03-11T18:45:00.684Z,75.5
2023-03-11T18:50:00.682Z,76.0
2023-03-11T18:55:00.657Z,75.9
2023-03-11T19:00:00.777Z,75.9
2023-03-11T19:05:00.798Z,75.3
2023-03-11T19:10:00.703Z,75.1
2023-03-11T19:15:00.684Z,75.7
2023-03-11T19:20:00.754Z,76.2
2023-03-11T19:25:00.733Z,76.2
2023-03-11T19:30:00.701Z,76.3
2023-03-11T19:35:00.706Z,75.4
2023-03-11T19:40:00.770Z,74.7
2023-03-11T19:45:00.696Z,74.8
2023-03-11T19:50:00.682Z,74.6
2023-03-11T19:55:00.730Z,75.0
2023-03-11T20:00:00.713Z,75.7
2023-03-11T20:05:00.800Z,76.4
2023-03-11T20:10:00.761Z,77.4
2023-03-11T20:15:00.687Z,76.7
2023-03-11T20:20:00.729Z,76.6
2023-03-11T20:25:00.723Z,77.0
2023-03-11T20:30:00.711Z,77.1
2023-03-11T20:35:00.677Z,77.2
2023-03-11T20:40:00.807Z,77.5
2023-03-11T20:45:00.754Z,77.4
2023-03-11T20:50:00.706Z,76.9
2023-03-11T20:55:00.681Z,77.0
2023-03-11T21:00:00.750Z,77.0
2023-03-11T21:05:00.676Z,76.9
2023-03-11T21:10:00.689Z,76.9
2023-03-11T21:15:00.733Z,77.4
2023-03-11T21:20:00.708Z,84.0
2023-03-11T21:25:00.805Z,77.5
2023-03-11T21:30:00.803Z,78.8
2023-03-11T21:35:00.829Z,79.3
2023-03-11T21:40:00.785Z,79.8
2023-03-11T21:45:00.758Z,79.9
2023-03-11T21:50:00.839Z,79.6
2023-03-11T21:55:00.728Z,80.0
2023-03-11T22:00:00.826Z,79.6
2023-03-11T22:05:00.855Z,79.5
2023-03-11T22:10:00.771Z,79.6
2023-03-11T22:15:00.803Z,83.2
2023-03-11T22:20:00.806Z,77.6
2023-03-11T22:25:00.714Z,78.5
2023-03-11T22:30:00.710Z,79.5
2023-03-11T22:35:00.674Z,77.7
2023-03-11T22:40:00.714Z,76.0
2023-03-11T22:45:00.717Z,78.2
2023-03-11T22:50:00.715Z,78.6
2023-03-11T22:55:00.704Z,78.9
2023-03-11T23:00:00.727Z,80.0
2023-03-11T23:05:00.681Z,80.3
2023-03-11T23:10:00.706Z,80.7
2023-03-11T23:15:00.730Z,81.6
2023-03-11T23:20:00.730Z,81.2
2023-03-11T23:25:00.679Z,81.5
2023-03-11T23:30:00.745Z,82.2
2023-03-11T23:35:00.703Z,81.5
2023-03-11T23:40:00.768Z,82.6
2023-03-11T23:45:00.694Z,82.3
2023-03-11T23:50:00.656Z,82.9
2023-03-11T23:55:00.697Z,82.9
